Huvudsida
METAR-TAF:

METAR-TAF

Flygplatser :

Brønnøysunds flygplats. Brønnøy

Brønnøysund, Norge

latitud: 65-28N, longitud: 012-13E, höjd: 0 m

Aktuellt väderrapport

Denna rapport gjordes för 34 minuter sedan, klockan 02:20 UTC
Vind 2 kt varierande vindriktning
Temperatur 6°C
Fuktighet 87%
Tryck 1020 hPa
Sikt 10 km eller mer

METAR: ENBN 190220Z AUTO VRB02KT 9999NDV BKN034/// 06/04 Q1020

Tid: 04:54 (02:54 UTC)

Väderprognos

Denna rapport gjordes för 9 timmar och 6 minuter sedan, klockan 17:48 UTC
Prognos gäller från 18 kl. 17 UTC till 18 kl. 19 UTC
Vind 10 kt från nord
Sikt 10 km eller mer
Spridda moln på en höjd av 2500 ft, Högtornande cumulus.
Brutna moln på en höjd av 4000 ft
lätta regnskurar
Temporärt
från 18 kl. 17 UTC till 18 kl. 19 UTC
Spridda moln på en höjd av 2500 ft, Cumulonimbus.
regnskurar

TAF: ENBN 181748Z 1817/1819 36010KT 9999 -SHRA SCT025TCU BKN040 TEMPO 1817/1819 SHRA SCT025CB

Aktuella väderrapporter och prognoser från 4000 flygplatser (METAR- och TAF-rapporter).

De tillgängliga stationerna syns som gula och röda prickar på kartan.

För musen över prickarna för att se namnen på stationerna.

Klicka sedan för att få väderrapporter och prognoser.

För att ändra kartan: Klicka på de gröna knapparna med ett svart kors på för att zooma in; den gröna knappen med ett streck på för att zooma ut; eller på de gröna pilarna för angränsande kartor.


METAR-TAF: